East Ellsworth, WI

5:02 AM CDT on May 27, 2015 (GMT -0500)
Red Wing Municipal | | Change Station
CLOSE
Current Station
Airport
Location: Red Wing,
Elevation: 784 ft
Nearby Weather Stations

Elev 784 ft 44.59 °N, 92.49 °W | Updated 11 minutes ago

Overcast
Overcast
57 °F
Feels Like 57 °F
N
0
Wind Variable Wind from North

Today
High -- | Low -- °F
--% Chance of Precip.
Yesterday
High -- | Low -- °F
Precip. -- in
5:30 AM 8:43 PM
Waxing Gibbous, 66% visible
Pressure 29.85 in
Visibility 3.0 miles
Clouds Mostly Cloudy 400 ft
Mostly Cloudy 800 ft
Dew Point 55 °F
Humidity 94%
Rainfall 0.13 in
Snow Depth Not available.
UV 0 out of 12
Pollen 3.60 out of 12
Air Quality Not available.
Flu Activity Sporadic
METAR KRGK 270951Z AUTO 00000KT 3SM BR BKN004 BKN008 14/13 A2985 RMK AO2

More Conditions Fewer Conditions

Pressure 29.85 in
Visibility 3.0 miles
Clouds Mostly Cloudy 400 ft
Mostly Cloudy 800 ft
Dew Point 55 °F
Humidity 94%
Rainfall 0.13 in
Snow Depth Not available.
UV 0 out of 12
Pollen 3.60 out of 12
Air Quality Not available.
Flu Activity Sporadic
METAR KRGK 270951Z AUTO 00000KT 3SM BR BKN004 BKN008 14/13 A2985 RMK AO2

More Conditions Fewer Conditions

10-Day Weather Forecast

Almanac

Astronomy

May. 27, 2015 Rise Set
Actual Time
Civil Twilight
Nautical Twilight
Astronomical Twilight
Moon
Length of Visible Light
Length of Day
Tomorrow will be .
, % of the Moon is Illuminated

Today's Extremes

State Highs State Lows

Community

WunderPhotos

Upload Photos

1,824,635 photos uploaded!

WunderBlogs® & News

Nearby

Air Quality

  Air Quality AQ Index Pollutant
Not available.

Snow Depth

Station Depth Elevation

Earthquake Activity

City Distance Mag. Time & Date
Minimum magnitude displayed is 2.5.

Coastal Water Temperatures

Place Temperature

Stations

Nearby Weather Stations

Station Location Temp. Windchill Dew Point Humidity Wind Precip. Elev Updated Type